sensor_id;sensor_type;location;lat;lon;timestamp;pressure;altitude;pressure_sealevel;temperature;humidity
42591;BME280;28218;53.342;-6.216;2023-03-13T00:01:12;97584.44;;;12.05;100.00
42591;BME280;28218;53.342;-6.216;2023-03-13T00:03:42;97569.41;;;12.05;100.00
42591;BME280;28218;53.342;-6.216;2023-03-13T00:06:10;97562.50;;;12.04;100.00
42591;BME280;28218;53.342;-6.216;2023-03-13T00:08:39;97563.56;;;12.03;100.00
42591;BME280;28218;53.342;-6.216;2023-03-13T00:11:11;97558.06;;;12.05;100.00
42591;BME280;28218;53.342;-6.216;2023-03-13T00:13:40;97544.59;;;12.06;100.00
42591;BME280;28218;53.342;-6.216;2023-03-13T00:16:10;97511.38;;;12.10;100.00
42591;BME280;28218;53.342;-6.216;2023-03-13T00:18:55;97480.75;;;12.09;100.00
42591;BME280;28218;53.342;-6.216;2023-03-13T00:21:26;97475.47;;;12.09;100.00
42591;BME280;28218;53.342;-6.216;2023-03-13T00:23:55;97479.16;;;12.08;100.00
42591;BME280;28218;53.342;-6.216;2023-03-13T00:26:25;97471.00;;;12.10;100.00
42591;BME280;28218;53.342;-6.216;2023-03-13T00:28:54;97473.63;;;12.10;100.00
42591;BME280;28218;53.342;-6.216;2023-03-13T00:31:23;97459.91;;;12.13;100.00
42591;BME280;28218;53.342;-6.216;2023-03-13T00:33:56;97455.69;;;12.12;100.00
42591;BME280;28218;53.342;-6.216;2023-03-13T00:36:26;97450.94;;;12.14;100.00
42591;BME280;28218;53.342;-6.216;2023-03-13T00:38:56;97449.91;;;12.15;100.00
42591;BME280;28218;53.342;-6.216;2023-03-13T00:41:25;97452.53;;;12.15;100.00
42591;BME280;28218;53.342;-6.216;2023-03-13T00:43:54;97451.75;;;12.14;100.00
42591;BME280;28218;53.342;-6.216;2023-03-13T00:46:24;97443.00;;;12.14;100.00
42591;BME280;28218;53.342;-6.216;2023-03-13T00:48:54;97436.94;;;12.13;100.00
42591;BME280;28218;53.342;-6.216;2023-03-13T00:51:23;97416.91;;;12.17;100.00
42591;BME280;28218;53.342;-6.216;2023-03-13T00:53:53;97403.19;;;12.15;100.00
42591;BME280;28218;53.342;-6.216;2023-03-13T00:56:22;97416.09;;;12.12;100.00
42591;BME280;28218;53.342;-6.216;2023-03-13T00:58:50;97404.47;;;12.13;100.00
42591;BME280;28218;53.342;-6.216;2023-03-13T01:01:21;97396.03;;;12.11;100.00
42591;BME280;28218;53.342;-6.216;2023-03-13T01:03:51;97397.09;;;12.10;100.00
42591;BME280;28218;53.342;-6.216;2023-03-13T01:06:23;97385.47;;;12.06;100.00
42591;BME280;28218;53.342;-6.216;2023-03-13T01:08:52;97392.59;;;12.05;100.00
42591;BME280;28218;53.342;-6.216;2023-03-13T01:11:22;97388.09;;;12.00;100.00
42591;BME280;28218;53.342;-6.216;2023-03-13T01:13:53;97367.78;;;12.06;100.00
42591;BME280;28218;53.342;-6.216;2023-03-13T01:16:22;97382.28;;;12.03;100.00
42591;BME280;28218;53.342;-6.216;2023-03-13T01:18:51;97382.81;;;12.06;100.00
42591;BME280;28218;53.342;-6.216;2023-03-13T01:21:22;97387.56;;;12.03;100.00
42591;BME280;28218;53.342;-6.216;2023-03-13T01:23:51;97377.56;;;12.11;100.00
42591;BME280;28218;53.342;-6.216;2023-03-13T01:26:21;97390.50;;;12.12;100.00
42591;BME280;28218;53.342;-6.216;2023-03-13T01:28:52;97392.31;;;12.07;100.00
42591;BME280;28218;53.342;-6.216;2023-03-13T01:31:23;97388.91;;;12.06;100.00
42591;BME280;28218;53.342;-6.216;2023-03-13T01:33:54;97385.97;;;12.02;100.00
42591;BME280;28218;53.342;-6.216;2023-03-13T01:36:25;97377.78;;;12.04;100.00
42591;BME280;28218;53.342;-6.216;2023-03-13T01:38:55;97377.78;;;12.04;100.00
42591;BME280;28218;53.342;-6.216;2023-03-13T01:41:24;97379.41;;;12.05;100.00
42591;BME280;28218;53.342;-6.216;2023-03-13T01:43:53;97375.16;;;12.04;100.00
42591;BME280;28218;53.342;-6.216;2023-03-13T01:46:22;97381.25;;;12.05;100.00
42591;BME280;28218;53.342;-6.216;2023-03-13T01:48:56;97366.47;;;12.09;100.00
42591;BME280;28218;53.342;-6.216;2023-03-13T01:51:29;97366.47;;;12.09;100.00
42591;BME280;28218;53.342;-6.216;2023-03-13T01:54:03;97341.69;;;12.15;100.00
42591;BME280;28218;53.342;-6.216;2023-03-13T01:56:37;97335.34;;;12.11;100.00
42591;BME280;28218;53.342;-6.216;2023-03-13T01:59:09;97339.56;;;12.12;100.00
42591;BME280;28218;53.342;-6.216;2023-03-13T02:01:41;97339.28;;;12.13;100.00
42591;BME280;28218;53.342;-6.216;2023-03-13T02:04:10;97342.19;;;12.12;100.00
42591;BME280;28218;53.342;-6.216;2023-03-13T02:06:42;97352.50;;;12.13;100.00
42591;BME280;28218;53.342;-6.216;2023-03-13T02:09:14;97331.13;;;12.15;100.00
42591;BME280;28218;53.342;-6.216;2023-03-13T02:11:47;97323.22;;;12.15;100.00
42591;BME280;28218;53.342;-6.216;2023-03-13T02:14:19;97334.56;;;12.15;100.00
42591;BME280;28218;53.342;-6.216;2023-03-13T02:16:49;97326.88;;;12.14;100.00
42591;BME280;28218;53.342;-6.216;2023-03-13T02:19:24;97310.03;;;12.15;100.00
42591;BME280;28218;53.342;-6.216;2023-03-13T02:22:01;97304.19;;;12.08;100.00
42591;BME280;28218;53.342;-6.216;2023-03-13T02:24:36;97311.81;;;12.04;100.00
42591;BME280;28218;53.342;-6.216;2023-03-13T02:27:10;97315.28;;;12.05;100.00
42591;BME280;28218;53.342;-6.216;2023-03-13T02:29:39;97327.13;;;12.02;100.00
42591;BME280;28218;53.342;-6.216;2023-03-13T02:32:08;97321.59;;;12.03;100.00
42591;BME280;28218;53.342;-6.216;2023-03-13T02:34:38;97307.88;;;12.01;100.00
42591;BME280;28218;53.342;-6.216;2023-03-13T02:37:07;97304.69;;;11.94;100.00
42591;BME280;28218;53.342;-6.216;2023-03-13T02:39:42;97289.41;;;12.01;100.00
42591;BME280;28218;53.342;-6.216;2023-03-13T02:42:16;97280.44;;;12.02;100.00
42591;BME280;28218;53.342;-6.216;2023-03-13T02:44:46;97270.94;;;12.07;100.00
42591;BME280;28218;53.342;-6.216;2023-03-13T02:47:17;97271.47;;;12.03;100.00
42591;BME280;28218;53.342;-6.216;2023-03-13T02:49:45;97269.09;;;12.07;100.00
42591;BME280;28218;53.342;-6.216;2023-03-13T02:52:17;97261.44;;;12.06;100.00
42591;BME280;28218;53.342;-6.216;2023-03-13T02:54:49;97256.97;;;12.11;100.00
42591;BME280;28218;53.342;-6.216;2023-03-13T02:57:20;97246.41;;;12.11;100.00
42591;BME280;28218;53.342;-6.216;2023-03-13T02:59:48;97250.34;;;12.09;100.00
42591;BME280;28218;53.342;-6.216;2023-03-13T03:02:16;97234.50;;;12.09;100.00
42591;BME280;28218;53.342;-6.216;2023-03-13T03:04:45;97240.84;;;12.13;100.00
42591;BME280;28218;53.342;-6.216;2023-03-13T03:07:13;97247.47;;;12.10;100.00
42591;BME280;28218;53.342;-6.216;2023-03-13T03:09:41;97239.00;;;12.18;100.00
42591;BME280;28218;53.342;-6.216;2023-03-13T03:12:09;97222.66;;;12.21;100.00
42591;BME280;28218;53.342;-6.216;2023-03-13T03:14:39;97223.97;;;12.14;100.00
42591;BME280;28218;53.342;-6.216;2023-03-13T03:17:07;97237.69;;;12.16;100.00
42591;BME280;28218;53.342;-6.216;2023-03-13T03:19:35;97230.56;;;12.11;100.00
42591;BME280;28218;53.342;-6.216;2023-03-13T03:22:04;97251.97;;;12.15;100.00
42591;BME280;28218;53.342;-6.216;2023-03-13T03:24:32;97251.97;;;12.15;100.00
42591;BME280;28218;53.342;-6.216;2023-03-13T03:27:00;97244.03;;;12.15;100.00
42591;BME280;28218;53.342;-6.216;2023-03-13T03:29:28;97242.72;;;12.12;100.00
42591;BME280;28218;53.342;-6.216;2023-03-13T03:31:58;97248.25;;;12.11;100.00
42591;BME280;28218;53.342;-6.216;2023-03-13T03:34:26;97247.72;;;12.09;100.00
42591;BME280;28218;53.342;-6.216;2023-03-13T03:36:54;97253.78;;;12.04;100.00
42591;BME280;28218;53.342;-6.216;2023-03-13T03:39:22;97240.06;;;12.02;100.00
42591;BME280;28218;53.342;-6.216;2023-03-13T03:41:51;97233.72;;;11.93;100.00
42591;BME280;28218;53.342;-6.216;2023-03-13T03:44:19;97233.19;;;11.91;100.00
42591;BME280;28218;53.342;-6.216;2023-03-13T03:46:47;97244.50;;;11.81;100.00
42591;BME280;28218;53.342;-6.216;2023-03-13T03:49:17;97241.31;;;11.79;100.00
42591;BME280;28218;53.342;-6.216;2023-03-13T03:51:45;97241.81;;;11.76;100.00
42591;BME280;28218;53.342;-6.216;2023-03-13T03:54:14;97234.94;;;11.70;100.00
42591;BME280;28218;53.342;-6.216;2023-03-13T03:56:42;97243.38;;;11.62;100.00
42591;BME280;28218;53.342;-6.216;2023-03-13T03:59:10;97241.78;;;11.61;100.00
42591;BME280;28218;53.342;-6.216;2023-03-13T04:01:38;97270.56;;;11.62;100.00
42591;BME280;28218;53.342;-6.216;2023-03-13T04:04:07;97257.88;;;11.59;100.00
42591;BME280;28218;53.342;-6.216;2023-03-13T04:06:36;97260.25;;;11.61;100.00
42591;BME280;28218;53.342;-6.216;2023-03-13T04:09:04;97284.44;;;11.47;100.00
42591;BME280;28218;53.342;-6.216;2023-03-13T04:11:33;97289.19;;;11.45;100.00
42591;BME280;28218;53.342;-6.216;2023-03-13T04:14:01;97284.97;;;11.39;100.00
42591;BME280;28218;53.342;-6.216;2023-03-13T04:16:29;97289.38;;;11.34;100.00
42591;BME280;28218;53.342;-6.216;2023-03-13T04:18:57;97273.53;;;11.23;100.00
42591;BME280;28218;53.342;-6.216;2023-03-13T04:21:25;97271.94;;;11.22;100.00
42591;BME280;28218;53.342;-6.216;2023-03-13T04:23:55;97262.72;;;11.20;100.00
42591;BME280;28218;53.342;-6.216;2023-03-13T04:26:23;97280.66;;;11.23;100.00
42591;BME280;28218;53.342;-6.216;2023-03-13T04:28:51;97255.31;;;11.17;100.00
42591;BME280;28218;53.342;-6.216;2023-03-13T04:31:20;97260.63;;;11.22;100.00
42591;BME280;28218;53.342;-6.216;2023-03-13T04:33:48;97252.72;;;11.27;100.00
42591;BME280;28218;53.342;-6.216;2023-03-13T04:36:16;97268.81;;;11.25;100.00
42591;BME280;28218;53.342;-6.216;2023-03-13T04:38:44;97297.00;;;11.25;100.00
42591;BME280;28218;53.342;-6.216;2023-03-13T04:41:14;97286.16;;;11.16;100.00
42591;BME280;28218;53.342;-6.216;2023-03-13T04:43:42;97295.41;;;11.24;100.00
42591;BME280;28218;53.342;-6.216;2023-03-13T04:46:14;97303.56;;;11.22;100.00
42591;BME280;28218;53.342;-6.216;2023-03-13T04:48:42;97304.38;;;11.23;100.00
42591;BME280;28218;53.342;-6.216;2023-03-13T04:51:11;97318.84;;;11.20;100.00
42591;BME280;28218;53.342;-6.216;2023-03-13T04:53:39;97314.34;;;11.16;100.00
42591;BME280;28218;53.342;-6.216;2023-03-13T04:56:07;97328.53;;;11.10;100.00
42591;BME280;28218;53.342;-6.216;2023-03-13T04:58:37;97335.09;;;11.07;100.00
42591;BME280;28218;53.342;-6.216;2023-03-13T05:01:05;97334.56;;;11.05;100.00
42591;BME280;28218;53.342;-6.216;2023-03-13T05:03:33;97317.69;;;11.01;100.00
42591;BME280;28218;53.342;-6.216;2023-03-13T05:06:02;97303.19;;;11.04;100.00
42591;BME280;28218;53.342;-6.216;2023-03-13T05:08:30;97302.66;;;11.02;100.00
42591;BME280;28218;53.342;-6.216;2023-03-13T05:10:58;97292.66;;;11.04;100.00
42591;BME280;28218;53.342;-6.216;2023-03-13T05:13:26;97295.00;;;11.00;100.00
42591;BME280;28218;53.342;-6.216;2023-03-13T05:15:56;97277.13;;;11.02;100.00
42591;BME280;28218;53.342;-6.216;2023-03-13T05:18:24;97267.63;;;11.01;100.00
42591;BME280;28218;53.342;-6.216;2023-03-13T05:20:52;97263.38;;;11.00;100.00
42591;BME280;28218;53.342;-6.216;2023-03-13T05:23:20;97267.63;;;11.01;100.00
42591;BME280;28218;53.342;-6.216;2023-03-13T05:25:48;97257.63;;;11.03;100.00
42591;BME280;28218;53.342;-6.216;2023-03-13T05:28:17;97240.00;;;11.09;100.00
42591;BME280;28218;53.342;-6.216;2023-03-13T05:30:45;97233.66;;;11.10;100.00
42591;BME280;28218;53.342;-6.216;2023-03-13T05:33:15;97232.88;;;11.09;100.00
42591;BME280;28218;53.342;-6.216;2023-03-13T05:35:45;97234.72;;;11.09;100.00
42591;BME280;28218;53.342;-6.216;2023-03-13T05:38:13;97242.38;;;11.10;100.00
42591;BME280;28218;53.342;-6.216;2023-03-13T05:40:41;97241.88;;;11.13;100.00
42591;BME280;28218;53.342;-6.216;2023-03-13T05:43:09;97238.16;;;11.09;100.00
42591;BME280;28218;53.342;-6.216;2023-03-13T05:45:38;97228.97;;;11.12;100.00
42591;BME280;28218;53.342;-6.216;2023-03-13T05:48:06;97241.06;;;11.13;100.00
42591;BME280;28218;53.342;-6.216;2023-03-13T05:50:35;97228.69;;;11.13;100.00
42591;BME280;28218;53.342;-6.216;2023-03-13T05:53:04;97223.97;;;11.15;100.00
42591;BME280;28218;53.342;-6.216;2023-03-13T05:55:32;97231.59;;;11.17;100.00
42591;BME280;28218;53.342;-6.216;2023-03-13T05:58:00;97231.06;;;11.15;100.00
42591;BME280;28218;53.342;-6.216;2023-03-13T06:00:28;97217.94;;;11.20;100.00
42591;BME280;28218;53.342;-6.216;2023-03-13T06:02:56;97219.50;;;11.21;100.00
42591;BME280;28218;53.342;-6.216;2023-03-13T06:05:25;97226.88;;;11.24;100.00
42591;BME280;28218;53.342;-6.216;2023-03-13T06:07:54;97229.75;;;11.17;100.00
42591;BME280;28218;53.342;-6.216;2023-03-13T06:10:22;97250.03;;;11.12;100.00
42591;BME280;28218;53.342;-6.216;2023-03-13T06:12:51;97244.22;;;11.10;100.00
42591;BME280;28218;53.342;-6.216;2023-03-13T06:15:20;97251.56;;;11.03;100.00
42591;BME280;28218;53.342;-6.216;2023-03-13T06:17:49;97250.00;;;11.02;100.00
42591;BME280;28218;53.342;-6.216;2023-03-13T06:20:17;97249.97;;;10.96;100.00
42591;BME280;28218;53.342;-6.216;2023-03-13T06:22:45;97245.47;;;10.92;100.00
42591;BME280;28218;53.342;-6.216;2023-03-13T06:25:15;97245.94;;;10.84;100.00
42591;BME280;28218;53.342;-6.216;2023-03-13T06:27:43;97243.03;;;10.85;100.00
42591;BME280;28218;53.342;-6.216;2023-03-13T06:30:11;97248.81;;;10.82;100.00
42591;BME280;28218;53.342;-6.216;2023-03-13T06:32:40;97236.44;;;10.83;100.00
42591;BME280;28218;53.342;-6.216;2023-03-13T06:35:08;97242.22;;;10.80;100.00
42591;BME280;28218;53.342;-6.216;2023-03-13T06:37:37;97242.50;;;10.83;100.00
42591;BME280;28218;53.342;-6.216;2023-03-13T06:40:06;97244.88;;;10.85;100.00
42591;BME280;28218;53.342;-6.216;2023-03-13T06:42:35;97234.09;;;10.91;100.00
42591;BME280;28218;53.342;-6.216;2023-03-13T06:45:04;97228.03;;;10.91;100.00
42591;BME280;28218;53.342;-6.216;2023-03-13T06:47:32;97227.81;;;10.92;100.00
42591;BME280;28218;53.342;-6.216;2023-03-13T06:50:01;97223.03;;;10.89;100.00
42591;BME280;28218;53.342;-6.216;2023-03-13T06:52:29;97217.50;;;10.91;100.00
42591;BME280;28218;53.342;-6.216;2023-03-13T06:55:10;97215.41;;;10.88;100.00
42591;BME280;28218;53.342;-6.216;2023-03-13T06:57:40;97222.50;;;10.87;100.00
42591;BME280;28218;53.342;-6.216;2023-03-13T07:00:09;97210.13;;;10.88;100.00
42591;BME280;28218;53.342;-6.216;2023-03-13T07:02:38;97219.84;;;10.82;100.00
42591;BME280;28218;53.342;-6.216;2023-03-13T07:05:07;97216.16;;;10.83;100.00
42591;BME280;28218;53.342;-6.216;2023-03-13T07:07:35;97200.38;;;10.83;100.00
42591;BME280;28218;53.342;-6.216;2023-03-13T07:10:04;97221.97;;;10.85;100.00
42591;BME280;28218;53.342;-6.216;2023-03-13T07:12:33;97207.22;;;10.84;100.00
42591;BME280;28218;53.342;-6.216;2023-03-13T07:15:05;97219.31;;;10.85;100.00
42591;BME280;28218;53.342;-6.216;2023-03-13T07:17:33;97214.06;;;10.85;100.00
42591;BME280;28218;53.342;-6.216;2023-03-13T07:20:02;97221.47;;;10.88;100.00
42591;BME280;28218;53.342;-6.216;2023-03-13T07:22:32;97224.88;;;10.89;100.00
42591;BME280;28218;53.342;-6.216;2023-03-13T07:25:00;97228.03;;;10.91;100.00
42591;BME280;28218;53.342;-6.216;2023-03-13T07:27:29;97222.78;;;10.91;100.00
42591;BME280;28218;53.342;-6.216;2023-03-13T07:29:57;97216.72;;;10.90;100.00
42591;BME280;28218;53.342;-6.216;2023-03-13T07:32:30;97216.72;;;10.90;100.00
42591;BME280;28218;53.342;-6.216;2023-03-13T07:34:58;97218.06;;;10.93;100.00
42591;BME280;28218;53.342;-6.216;2023-03-13T07:37:26;97214.38;;;10.94;100.00
42591;BME280;28218;53.342;-6.216;2023-03-13T07:39:54;97214.63;;;10.92;100.00
42591;BME280;28218;53.342;-6.216;2023-03-13T07:42:23;97212.25;;;10.91;100.00
42591;BME280;28218;53.342;-6.216;2023-03-13T07:44:52;97213.13;;;11.07;100.00
42591;BME280;28218;53.342;-6.216;2023-03-13T07:47:20;97211.56;;;11.11;100.00
42591;BME280;28218;53.342;-6.216;2023-03-13T07:49:49;97223.72;;;11.17;100.00
42591;BME280;28218;53.342;-6.216;2023-03-13T07:52:19;97211.31;;;11.17;100.00
42591;BME280;28218;53.342;-6.216;2023-03-13T07:54:48;97215.81;;;11.22;100.00
42591;BME280;28218;53.342;-6.216;2023-03-13T07:57:17;97209.25;;;11.24;100.00
42591;BME280;28218;53.342;-6.216;2023-03-13T07:59:45;97214.75;;;11.23;100.00
42591;BME280;28218;53.342;-6.216;2023-03-13T08:02:13;97215.38;;;11.40;100.00
42591;BME280;28218;53.342;-6.216;2023-03-13T08:04:42;97203.75;;;11.41;100.00
42591;BME280;28218;53.342;-6.216;2023-03-13T08:07:12;97218.00;;;11.45;100.00
42591;BME280;28218;53.342;-6.216;2023-03-13T08:09:40;97210.09;;;11.45;100.00
42591;BME280;28218;53.342;-6.216;2023-03-13T08:12:09;97215.91;;;11.47;100.00
42591;BME280;28218;53.342;-6.216;2023-03-13T08:14:37;97218.53;;;11.52;100.00
42591;BME280;28218;53.342;-6.216;2023-03-13T08:17:05;97211.97;;;11.55;100.00
42591;BME280;28218;53.342;-6.216;2023-03-13T08:19:33;97214.34;;;11.51;100.00
42591;BME280;28218;53.342;-6.216;2023-03-13T08:22:02;97215.91;;;11.47;100.00
42591;BME280;28218;53.342;-6.216;2023-03-13T08:24:31;97216.97;;;11.51;100.00
42591;BME280;28218;53.342;-6.216;2023-03-13T08:27:00;97215.09;;;11.47;100.00
42591;BME280;28218;53.342;-6.216;2023-03-13T08:29:28;97219.88;;;11.45;100.00
42591;BME280;28218;53.342;-6.216;2023-03-13T08:31:56;97224.34;;;11.44;100.00
42591;BME280;28218;53.342;-6.216;2023-03-13T08:34:24;97231.19;;;11.45;100.00
42591;BME280;28218;53.342;-6.216;2023-03-13T08:36:53;97232.78;;;11.51;100.00
42591;BME280;28218;53.342;-6.216;2023-03-13T08:39:22;97232.28;;;11.55;100.00
42591;BME280;28218;53.342;-6.216;2023-03-13T08:41:52;97240.72;;;11.57;100.00
42591;BME280;28218;53.342;-6.216;2023-03-13T08:44:20;97242.06;;;11.59;100.00
42591;BME280;28218;53.342;-6.216;2023-03-13T08:46:48;97238.09;;;11.62;100.00
42591;BME280;28218;53.342;-6.216;2023-03-13T08:49:16;97243.63;;;11.65;100.00
42591;BME280;28218;53.342;-6.216;2023-03-13T08:51:45;97237.09;;;11.73;100.00
42591;BME280;28218;53.342;-6.216;2023-03-13T08:54:13;97242.88;;;11.75;100.00
42591;BME280;28218;53.342;-6.216;2023-03-13T08:56:41;97247.63;;;11.78;100.00
42591;BME280;28218;53.342;-6.216;2023-03-13T08:59:11;97245.84;;;11.84;100.00
42591;BME280;28218;53.342;-6.216;2023-03-13T09:01:41;97255.03;;;11.81;100.00
42591;BME280;28218;53.342;-6.216;2023-03-13T09:04:09;97250.59;;;11.87;100.00
42591;BME280;28218;53.342;-6.216;2023-03-13T09:06:38;97253.25;;;11.92;100.00
42591;BME280;28218;53.342;-6.216;2023-03-13T09:09:06;97262.75;;;12.08;100.00
42591;BME280;28218;53.342;-6.216;2023-03-13T09:11:36;97255.91;;;12.17;100.00
42591;BME280;28218;53.342;-6.216;2023-03-13T09:14:05;97260.41;;;12.27;100.00
42591;BME280;28218;53.342;-6.216;2023-03-13T09:16:35;97263.03;;;12.27;100.00
42591;BME280;28218;53.342;-6.216;2023-03-13T09:19:03;97265.44;;;12.34;100.00
42591;BME280;28218;53.342;-6.216;2023-03-13T09:21:33;97265.72;;;12.47;100.00
42591;BME280;28218;53.342;-6.216;2023-03-13T09:24:02;97273.63;;;12.58;100.00
42591;BME280;28218;53.342;-6.216;2023-03-13T09:26:30;97273.06;;;12.61;100.00
42591;BME280;28218;53.342;-6.216;2023-03-13T09:28:58;97270.97;;;12.68;100.00
42591;BME280;28218;53.342;-6.216;2023-03-13T09:31:28;97280.75;;;12.67;100.00
42591;BME280;28218;53.342;-6.216;2023-03-13T09:33:59;97278.59;;;12.79;100.00
42591;BME280;28218;53.342;-6.216;2023-03-13T09:36:27;97290.78;;;12.86;100.00
42591;BME280;28218;53.342;-6.216;2023-03-13T09:38:58;97293.41;;;12.86;100.00
42591;BME280;28218;53.342;-6.216;2023-03-13T09:41:32;97295.78;;;12.87;100.00
42591;BME280;28218;53.342;-6.216;2023-03-13T09:44:06;97295.25;;;12.85;100.00
42591;BME280;28218;53.342;-6.216;2023-03-13T09:46:40;97300.00;;;12.83;100.00
42591;BME280;28218;53.342;-6.216;2023-03-13T09:49:22;97306.34;;;12.87;100.00
42591;BME280;28218;53.342;-6.216;2023-03-13T09:51:58;97310.03;;;13.01;100.00
42591;BME280;28218;53.342;-6.216;2023-03-13T09:54:33;97321.63;;;13.21;100.00
42591;BME280;28218;53.342;-6.216;2023-03-13T09:57:07;97317.94;;;13.37;100.00
42591;BME280;28218;53.342;-6.216;2023-03-13T09:59:46;97320.00;;;13.40;100.00
42591;BME280;28218;53.342;-6.216;2023-03-13T10:02:23;97320.56;;;13.42;100.00
42591;BME280;28218;53.342;-6.216;2023-03-13T10:05:01;97329.53;;;13.46;100.00
42591;BME280;28218;53.342;-6.216;2023-03-13T10:07:30;97341.94;;;13.51;100.00
42591;BME280;28218;53.342;-6.216;2023-03-13T10:10:00;97351.19;;;13.53;100.00
42591;BME280;28218;53.342;-6.216;2023-03-13T10:12:33;97358.38;;;13.43;100.00
42591;BME280;28218;53.342;-6.216;2023-03-13T10:15:18;97369.50;;;13.24;100.00
42591;BME280;28218;53.342;-6.216;2023-03-13T10:17:48;97371.34;;;13.19;100.00
42591;BME280;28218;53.342;-6.216;2023-03-13T10:20:24;97370.28;;;13.15;100.00
42591;BME280;28218;53.342;-6.216;2023-03-13T10:22:57;97379.28;;;13.14;100.00
42591;BME280;28218;53.342;-6.216;2023-03-13T10:25:29;97371.34;;;13.14;100.00
42591;BME280;28218;53.342;-6.216;2023-03-13T10:27:59;97378.22;;;13.10;100.00
42591;BME280;28218;53.342;-6.216;2023-03-13T10:30:29;97371.59;;;13.12;100.00
42591;BME280;28218;53.342;-6.216;2023-03-13T10:32:59;97377.66;;;13.08;100.00
42591;BME280;28218;53.342;-6.216;2023-03-13T10:35:34;97378.47;;;13.03;100.00
42591;BME280;28218;53.342;-6.216;2023-03-13T10:38:05;97388.25;;;13.08;100.00
42591;BME280;28218;53.342;-6.216;2023-03-13T10:40:38;97388.78;;;13.10;100.00
42591;BME280;28218;53.342;-6.216;2023-03-13T10:43:13;97379.53;;;13.12;100.00
42591;BME280;28218;53.342;-6.216;2023-03-13T10:45:42;97389.84;;;13.19;100.00
42591;BME280;28218;53.342;-6.216;2023-03-13T10:48:12;97388.50;;;13.21;100.00
42591;BME280;28218;53.342;-6.216;2023-03-13T10:50:43;97392.22;;;13.30;100.00
42591;BME280;28218;53.342;-6.216;2023-03-13T10:53:21;97398.06;;;13.33;100.00
42591;BME280;28218;53.342;-6.216;2023-03-13T10:55:51;97399.13;;;13.32;100.00
42591;BME280;28218;53.342;-6.216;2023-03-13T10:58:23;97400.44;;;13.29;100.00
42591;BME280;28218;53.342;-6.216;2023-03-13T11:01:12;97403.59;;;13.26;100.00
42591;BME280;28218;53.342;-6.216;2023-03-13T11:03:43;97414.16;;;13.31;100.00
42591;BME280;28218;53.342;-6.216;2023-03-13T11:06:31;97418.91;;;13.39;100.00
42591;BME280;28218;53.342;-6.216;2023-03-13T11:09:12;97409.91;;;13.61;100.00
42591;BME280;28218;53.342;-6.216;2023-03-13T11:11:48;97411.94;;;13.89;100.00
42591;BME280;28218;53.342;-6.216;2023-03-13T11:14:18;97415.25;;;14.20;100.00
42591;BME280;28218;53.342;-6.216;2023-03-13T11:16:49;97405.44;;;14.26;100.00
42591;BME280;28218;53.342;-6.216;2023-03-13T11:19:32;97418.72;;;14.11;100.00
42591;BME280;28218;53.342;-6.216;2023-03-13T11:22:15;97415.34;;;14.00;100.00
42591;BME280;28218;53.342;-6.216;2023-03-13T11:24:53;97436.81;;;13.93;100.00
42591;BME280;28218;53.342;-6.216;2023-03-13T11:27:30;97438.41;;;13.84;100.00
42591;BME280;28218;53.342;-6.216;2023-03-13T11:30:10;97452.19;;;13.76;100.00
42591;BME280;28218;53.342;-6.216;2023-03-13T11:32:42;97449.03;;;13.74;100.00
42591;BME280;28218;53.342;-6.216;2023-03-13T11:35:25;97454.31;;;13.84;100.00
42591;BME280;28218;53.342;-6.216;2023-03-13T11:38:06;97450.00;;;14.03;100.00
42591;BME280;28218;53.342;-6.216;2023-03-13T11:40:39;97437.19;;;14.31;100.00
42591;BME280;28218;53.342;-6.216;2023-03-13T11:43:22;97452.97;;;14.56;100.00
42591;BME280;28218;53.342;-6.216;2023-03-13T11:46:12;97453.66;;;14.77;100.00
42591;BME280;28218;53.342;-6.216;2023-03-13T11:49:02;97457.25;;;14.97;100.00
42591;BME280;28218;53.342;-6.216;2023-03-13T11:51:40;97454.97;;;15.14;100.00
42591;BME280;28218;53.342;-6.216;2023-03-13T11:54:37;97453.75;;;15.36;100.00
42591;BME280;28218;53.342;-6.216;2023-03-13T11:57:13;97456.03;;;15.47;100.00
42591;BME280;28218;53.342;-6.216;2023-03-13T11:59:49;97461.34;;;15.47;100.00
42591;BME280;28218;53.342;-6.216;2023-03-13T12:02:23;97467.38;;;15.58;100.00
42591;BME280;28218;53.342;-6.216;2023-03-13T12:04:55;97475.97;;;15.45;100.00
42591;BME280;28218;53.342;-6.216;2023-03-13T12:07:26;97471.31;;;15.31;100.00
42591;BME280;28218;53.342;-6.216;2023-03-13T12:10:00;97478.44;;;15.36;100.00
42591;BME280;28218;53.342;-6.216;2023-03-13T12:12:36;97471.41;;;15.50;100.00
42591;BME280;28218;53.342;-6.216;2023-03-13T12:15:18;97480.94;;;15.51;100.00
42591;BME280;28218;53.342;-6.216;2023-03-13T12:17:51;97480.28;;;15.70;100.00
42591;BME280;28218;53.342;-6.216;2023-03-13T12:20:23;97487.88;;;15.81;100.00
42591;BME280;28218;53.342;-6.216;2023-03-13T12:22:57;97491.91;;;15.74;100.00
42591;BME280;28218;53.342;-6.216;2023-03-13T12:25:33;97496.34;;;15.83;100.00
42591;BME280;28218;53.342;-6.216;2023-03-13T12:28:17;97500.25;;;15.91;100.00
42591;BME280;28218;53.342;-6.216;2023-03-13T12:30:58;97498.72;;;15.85;100.00
42591;BME280;28218;53.342;-6.216;2023-03-13T12:33:30;97499.72;;;15.89;100.00
42591;BME280;28218;53.342;-6.216;2023-03-13T12:36:06;97511.56;;;16.02;100.00
42591;BME280;28218;53.342;-6.216;2023-03-13T12:38:38;97527.25;;;15.98;100.00
42591;BME280;28218;53.342;-6.216;2023-03-13T12:41:17;97515.41;;;15.91;100.00
42591;BME280;28218;53.342;-6.216;2023-03-13T12:43:48;97537.59;;;15.71;100.00
42591;BME280;28218;53.342;-6.216;2023-03-13T12:46:42;97537.16;;;15.58;100.00
42591;BME280;28218;53.342;-6.216;2023-03-13T12:49:36;97535.72;;;15.76;100.00
42591;BME280;28218;53.342;-6.216;2023-03-13T12:52:22;97528.28;;;15.73;100.00
42591;BME280;28218;53.342;-6.216;2023-03-13T12:55:08;97535.19;;;15.74;100.00
42591;BME280;28218;53.342;-6.216;2023-03-13T12:58:12;97530.47;;;15.66;100.00
42591;BME280;28218;53.342;-6.216;2023-03-13T13:00:43;97548.50;;;15.69;100.00